Time;durP1;ratioP1;P1;durP2;ratioP2;P2;SDS_P1;SDS_P2;PMS_P1;PMS_P2;Temp;Humidity;BMP_temperature;BMP_pressure;BME280_temperature;BME280_humidity;BME280_pressure;Samples;Min_cycle;Max_cycle;Signal;HPM_P1;HPM_P2
2022/09/03 00:00:44;;;;;;;;;7.00;7.00;;;;;21.66;57.93;100543.19;4916325;28;45556;-51
2022/09/03 00:03:36;;;;;;;;;7.25;7.25;;;;;21.72;58.04;100560.41;4916769;28;45267;-56
2022/09/03 00:06:04;;;;;;;;;6.00;6.00;;;;;21.74;58.04;100560.19;4916562;28;45516;-58
2022/09/03 00:08:42;;;;;;;;;9.25;8.50;;;;;21.70;58.35;100558.97;4916500;28;45417;-55
2022/09/03 00:11:24;;;;;;;;;10.40;10.40;;;;;21.66;58.29;100556.75;4916406;28;45258;-59
2022/09/03 00:14:06;;;;;;;;;8.00;8.00;;;;;21.64;57.97;100555.28;4916569;28;45459;-59
2022/09/03 00:16:43;;;;;;;;;8.75;8.00;;;;;21.61;58.34;100551.16;4916491;28;45508;-58
2022/09/03 00:19:12;;;;;;;;;7.00;7.00;;;;;21.60;58.67;100559.50;4915541;28;46210;-55
2022/09/03 00:21:44;;;;;;;;;9.80;7.00;;;;;21.60;58.25;100556.78;4916499;28;45376;-59
2022/09/03 00:24:14;;;;;;;;;10.25;10.25;;;;;21.56;57.92;100539.34;4916223;28;45341;-60
2022/09/03 00:26:44;;;;;;;;;10.00;8.00;;;;;21.55;58.35;100541.22;4916648;28;45409;-59
2022/09/03 00:29:31;;;;;;;;;9.25;7.00;;;;;21.58;58.58;100550.78;4924997;28;46107;-58
2022/09/03 00:32:02;;;;;;;;;8.60;7.40;;;;;21.62;58.72;100550.13;4935504;28;45483;-55
2022/09/03 00:34:27;;;;;;;;;9.25;8.00;;;;;21.61;59.00;100548.44;4935293;28;45508;-53
2022/09/03 00:36:53;;;;;;;;;9.00;7.00;;;;;21.61;58.61;100545.72;4932570;28;45562;-58
2022/09/03 00:39:21;;;;;;;;;8.50;7.25;;;;;21.59;58.64;100545.13;4974903;28;46966;-51
2022/09/03 00:42:14;;;;;;;;;7.60;7.60;;;;;21.60;58.73;100544.09;4977591;28;45388;-59
2022/09/03 00:45:07;;;;;;;;;10.00;7.00;;;;;21.59;58.46;100539.72;4976199;28;45234;-58
2022/09/03 00:47:38;;;;;;;;;4.25;3.75;;;;;21.56;58.10;100542.03;4976098;28;45316;-55
2022/09/03 00:50:10;;;;;;;;;6.00;6.00;;;;;21.52;58.37;100546.25;4975750;28;46382;-55
2022/09/03 00:52:38;;;;;;;;;8.00;6.60;;;;;21.50;58.65;100551.91;4976029;28;46013;-53
2022/09/03 00:55:16;;;;;;;;;6.60;5.80;;;;;21.46;58.51;100547.97;4976200;28;45460;-58
2022/09/03 00:57:52;;;;;;;;;6.50;5.25;;;;;21.46;58.09;100556.09;4976210;28;45455;-54
2022/09/03 01:00:19;;;;;;;;;6.00;5.00;;;;;21.47;58.34;100559.63;4975381;28;46178;-54
2022/09/03 01:03:06;;;;;;;;;5.80;5.00;;;;;21.43;58.39;100559.25;4976036;28;45259;-53
2022/09/03 01:06:10;;;;;;;;;9.75;6.00;;;;;21.40;58.21;100562.38;4975952;28;45216;-55
2022/09/03 01:09:08;;;;;;;;;6.00;6.00;;;;;21.37;59.07;100558.25;4976102;28;45436;-56
2022/09/03 01:12:04;;;;;;;;;6.75;6.00;;;;;21.33;59.01;100561.63;4974869;28;47109;-55
2022/09/03 01:15:08;;;;;;;;;7.80;6.40;;;;;21.31;59.24;100561.00;4975540;28;45339;-49
2022/09/03 01:18:02;;;;;;;;;6.40;6.40;;;;;21.31;59.50;100566.41;4976082;28;45284;-50
2022/09/03 01:20:45;;;;;;;;;6.25;4.75;;;;;21.29;59.64;100560.41;4954219;28;45258;-55
2022/09/03 01:23:25;;;;;;;;;8.50;6.75;;;;;21.27;60.25;100557.06;4954025;28;45457;-51
2022/09/03 01:25:53;;;;;;;;;8.20;7.40;;;;;21.15;60.47;100541.59;4953865;28;45553;-52
2022/09/03 01:28:41;;;;;;;;;6.25;6.25;;;;;21.18;60.96;100545.69;4953924;28;45417;-49
2022/09/03 01:31:25;;;;;;;;;7.50;6.00;;;;;21.23;60.86;100555.84;4954261;28;45453;-51
2022/09/03 01:34:15;;;;;;;;;6.50;6.00;;;;;21.25;60.99;100554.59;4953761;28;47222;-51
2022/09/03 01:37:06;;;;;;;;;9.80;8.00;;;;;21.24;60.67;100561.06;4953581;28;45516;-52
2022/09/03 01:39:56;;;;;;;;;7.80;5.80;;;;;21.22;61.02;100556.91;4953920;28;45493;-50
2022/09/03 01:42:54;;;;;;;;;6.50;6.50;;;;;21.23;61.32;100561.25;4954085;28;45504;-52
2022/09/03 01:45:34;;;;;;;;;7.25;6.50;;;;;21.20;61.14;100561.72;4915213;28;46353;-50
2022/09/03 01:48:18;;;;;;;;;5.25;5.25;;;;;21.11;61.43;100551.19;4915370;28;45540;-52
2022/09/03 01:50:58;;;;;;;;;8.25;5.25;;;;;21.08;60.96;100551.63;4915141;28;45471;-50
2022/09/03 01:53:36;;;;;;;;;4.50;4.50;;;;;21.14;61.96;100560.72;4915622;28;45420;-52
2022/09/03 01:56:19;;;;;;;;;9.00;6.25;;;;;21.12;61.97;100557.41;4915043;28;46173;-53
2022/09/03 01:59:10;;;;;;;;;7.80;7.20;;;;;21.10;61.67;100554.09;4934652;28;45409;-50
2022/09/03 02:01:42;;;;;;;;;9.50;6.50;;;;;21.06;61.88;100556.41;4934744;28;45335;-52
2022/09/03 02:04:23;;;;;;;;;7.00;7.00;;;;;21.02;61.83;100557.88;4934572;28;45338;-53
2022/09/03 02:06:53;;;;;;;;;9.00;9.00;;;;;20.99;62.32;100555.66;4934021;28;46428;-53
2022/09/03 02:09:20;;;;;;;;;7.75;7.00;;;;;20.94;62.55;100544.63;4934099;28;45392;-52
2022/09/03 02:11:53;;;;;;;;;8.00;8.00;;;;;20.96;62.99;100552.53;4933113;28;45494;-54
2022/09/03 02:14:19;;;;;;;;;8.25;7.00;;;;;20.92;63.76;100552.16;4934453;28;46190;-49
2022/09/03 02:16:45;;;;;;;;;6.50;6.00;;;;;20.91;63.93;100556.72;4933806;28;45449;-52
2022/09/03 02:19:14;;;;;;;;;7.25;5.50;;;;;20.89;63.97;100558.00;4934311;28;45338;-52
2022/09/03 02:21:49;;;;;;;;;6.75;6.75;;;;;20.76;64.02;100536.47;4945168;28;45436;-51
2022/09/03 02:24:14;;;;;;;;;10.00;9.50;;;;;20.84;64.40;100555.13;4975059;28;45379;-52
2022/09/03 02:26:40;;;;;;;;;13.00;8.00;;;;;20.81;64.73;100552.84;4974998;28;46076;-56
2022/09/03 02:29:06;;;;;;;;;9.50;7.25;;;;;20.77;64.79;100551.63;4974821;28;45448;-54
2022/09/03 02:31:31;;;;;;;;;11.25;8.25;;;;;20.78;65.13;100554.13;4974839;28;45296;-54
2022/09/03 02:33:57;;;;;;;;;9.75;8.75;;;;;20.75;65.08;100553.72;4975177;28;45240;-50
2022/09/03 02:36:31;;;;;;;;;8.25;8.25;;;;;20.74;65.48;100560.19;4974435;28;46187;-52
2022/09/03 02:38:56;;;;;;;;;11.50;10.75;;;;;20.72;65.23;100559.56;4974872;28;45362;-54
2022/09/03 02:41:22;;;;;;;;;9.00;9.00;;;;;20.57;65.83;100544.50;4974755;28;45260;-49
2022/09/03 02:44:27;;;;;;;;;12.25;9.00;;;;;20.70;65.32;100569.78;4974944;28;45457;-53
2022/09/03 02:47:05;;;;;;;;;9.00;8.00;;;;;20.68;65.47;100567.28;4974603;28;47253;-54
2022/09/03 02:49:31;;;;;;;;;11.00;8.00;;;;;20.65;66.43;100556.94;4974377;28;45453;-53
2022/09/03 02:52:08;;;;;;;;;11.75;11.25;;;;;20.65;65.17;100562.34;4974938;28;45395;-50
2022/09/03 02:54:40;;;;;;;;;11.50;10.00;;;;;20.50;66.73;100543.69;4973489;28;45350;-51
2022/09/03 02:57:08;;;;;;;;;12.75;12.50;;;;;20.58;66.71;100550.72;4975844;28;45316;-50
2022/09/03 02:59:34;;;;;;;;;17.00;13.25;;;;;20.61;66.69;100561.94;4974275;28;45257;-54
2022/09/03 03:02:00;;;;;;;;;15.50;11.75;;;;;20.60;67.11;100560.25;4974667;28;45405;-52
2022/09/03 03:04:26;;;;;;;;;14.00;13.00;;;;;20.53;67.42;100551.38;4974535;28;45393;-52
2022/09/03 03:06:51;;;;;;;;;20.25;13.75;;;;;20.60;67.16;100556.72;4974236;28;45314;-52
2022/09/03 03:09:17;;;;;;;;;17.00;12.75;;;;;20.61;66.85;100558.41;4974048;28;45319;-54
2022/09/03 03:11:43;;;;;;;;;15.50;12.25;;;;;20.58;67.17;100556.13;4974296;28;45463;-50
2022/09/03 03:14:09;;;;;;;;;12.75;11.50;;;;;20.63;66.86;100553.59;4974587;28;45213;-50
2022/09/03 03:16:34;;;;;;;;;18.00;14.00;;;;;20.62;67.46;100554.66;4973924;28;47136;-55
2022/09/03 03:19:00;;;;;;;;;16.50;13.00;;;;;20.55;67.65;100554.66;4974144;28;45623;-52
2022/09/03 03:21:25;;;;;;;;;11.25;11.00;;;;;20.52;66.51;100552.44;4974176;28;45433;-49
2022/09/03 03:23:51;;;;;;;;;15.25;12.75;;;;;20.52;67.81;100555.13;4976135;28;45523;-52
2022/09/03 03:26:18;;;;;;;;;13.50;13.00;;;;;20.50;68.62;100565.31;4977178;28;45812;-52
2022/09/03 03:28:45;;;;;;;;;13.75;13.75;;;;;20.48;68.58;100562.00;4977154;28;45428;-52
2022/09/03 03:31:19;;;;;;;;;13.25;13.25;;;;;20.47;68.34;100551.38;4992034;28;45371;-48
2022/09/03 03:33:51;;;;;;;;;14.75;13.00;;;;;20.42;68.17;100558.25;4977336;28;45311;-52
2022/09/03 03:36:16;;;;;;;;;12.75;11.00;;;;;20.44;67.93;100560.75;4976579;28;46071;-50
2022/09/03 03:38:43;;;;;;;;;12.75;12.25;;;;;20.42;69.05;100555.53;4976686;28;45390;-51
2022/09/03 03:41:11;;;;;;;;;15.00;11.25;;;;;20.38;68.11;100556.19;4977031;28;45332;-49
2022/09/03 03:43:37;;;;;;;;;11.75;9.50;;;;;20.34;68.39;100549.56;4976999;28;45228;-51
2022/09/03 03:46:04;;;;;;;;;14.75;13.00;;;;;20.32;68.29;100554.38;4976913;28;47077;-52
2022/09/03 03:48:30;;;;;;;;;13.25;12.25;;;;;20.31;68.63;100555.38;4976551;28;45391;-50
2022/09/03 03:51:00;;;;;;;;;14.25;13.25;;;;;20.31;68.89;100555.38;4976727;28;45442;-52
2022/09/03 03:53:25;;;;;;;;;13.00;12.75;;;;;20.28;69.54;100542.34;4977142;28;45276;-53
2022/09/03 03:55:59;;;;;;;;;13.50;13.00;;;;;20.26;68.18;100552.50;4976339;28;47135;-51
2022/09/03 03:58:25;;;;;;;;;12.75;12.25;;;;;20.26;69.99;100558.72;4976572;28;45349;-53
2022/09/03 04:00:51;;;;;;;;;12.75;12.75;;;;;20.30;69.39;100543.75;4977047;28;45377;-54
2022/09/03 04:03:17;;;;;;;;;13.00;13.00;;;;;20.31;69.37;100550.84;4976843;28;45334;-54
2022/09/03 04:05:43;;;;;;;;;14.50;12.00;;;;;20.29;69.17;100535.88;4976458;28;45371;-50
2022/09/03 04:08:08;;;;;;;;;14.75;13.25;;;;;20.33;68.68;100539.81;4976482;28;45263;-53
2022/09/03 04:10:35;;;;;;;;;12.75;11.75;;;;;20.32;69.09;100546.25;4976798;28;45309;-58
2022/09/03 04:13:01;;;;;;;;;17.00;16.00;;;;;20.28;69.43;100534.22;4977027;28;45374;-55
2022/09/03 04:15:26;;;;;;;;;11.25;10.00;;;;;20.34;69.16;100542.28;4976283;28;46933;-57
2022/09/03 04:17:54;;;;;;;;;14.25;13.25;;;;;20.40;69.02;100543.31;4976729;28;45454;-58
2022/09/03 04:20:19;;;;;;;;;14.00;12.50;;;;;20.38;69.25;100551.63;4976498;28;45502;-57
2022/09/03 04:22:45;;;;;;;;;12.75;10.00;;;;;20.27;69.39;100540.66;4976361;28;45378;-56
2022/09/03 04:25:10;;;;;;;;;15.75;13.50;;;;;20.37;68.87;100546.44;4976425;28;46310;-53
2022/09/03 04:27:35;;;;;;;;;12.75;12.50;;;;;20.39;68.86;100556.00;4976149;28;45413;-59
2022/09/03 04:30:01;;;;;;;;;13.00;12.25;;;;;20.37;68.04;100552.66;4976593;28;45382;-58
2022/09/03 04:35:11;;;;;;;;;11.75;11.75;;;;;20.33;69.42;100553.31;4975269;28;45487;-58
2022/09/03 04:37:36;;;;;;;;;16.25;12.00;;;;;20.13;68.75;100531.78;4975970;28;45398;-57
2022/09/03 04:40:02;;;;;;;;;10.25;9.75;;;;;20.25;69.22;100548.97;4976488;28;45471;-55
2022/09/03 04:42:28;;;;;;;;;11.00;11.00;;;;;20.27;69.90;100554.16;4976227;28;45367;-57
2022/09/03 04:44:53;;;;;;;;;16.25;11.25;;;;;20.28;69.67;100551.25;4976306;28;45438;-57
2022/09/03 04:47:18;;;;;;;;;15.75;11.75;;;;;20.29;68.91;100552.09;4976051;28;45421;-56
2022/09/03 04:49:44;;;;;;;;;14.00;11.25;;;;;20.24;69.51;100544.63;4976044;28;45382;-54
2022/09/03 04:52:09;;;;;;;;;14.00;12.00;;;;;20.19;69.58;100542.56;4976391;28;45546;-57
2022/09/03 04:54:34;;;;;;;;;13.75;12.75;;;;;20.22;69.96;100554.81;4975896;28;46094;-50
2022/09/03 04:57:00;;;;;;;;;11.75;9.75;;;;;20.23;69.40;100558.38;4976146;28;45297;-53
2022/09/03 04:59:25;;;;;;;;;14.25;14.25;;;;;20.23;69.49;100558.38;4976081;28;45354;-56
2022/09/03 05:01:55;;;;;;;;;15.00;9.50;;;;;20.22;70.03;100556.69;4976189;28;45412;-51
2022/09/03 05:04:20;;;;;;;;;11.50;9.75;;;;;20.23;69.63;100558.38;4975835;28;45391;-53
2022/09/03 05:06:45;;;;;;;;;12.50;11.50;;;;;20.22;70.10;100562.09;4975724;28;45454;-55
2022/09/03 05:09:11;;;;;;;;;14.00;14.00;;;;;20.20;70.16;100559.59;4975981;28;45304;-57
2022/09/03 05:11:36;;;;;;;;;14.50;12.00;;;;;20.19;70.04;100566.06;4976120;28;45215;-56
2022/09/03 05:14:04;;;;;;;;;13.75;12.75;;;;;20.13;70.32;100559.63;4975663;28;46124;-53
2022/09/03 05:16:30;;;;;;;;;17.00;11.50;;;;;20.17;69.99;100563.56;4975798;28;45267;-56
2022/09/03 05:19:00;;;;;;;;;13.50;12.25;;;;;20.16;70.10;100570.00;4975933;28;45405;-55
2022/09/03 05:21:27;;;;;;;;;14.25;11.75;;;;;20.13;70.30;100559.63;4975941;28;45275;-56
2022/09/03 05:23:53;;;;;;;;;15.25;12.00;;;;;20.15;70.00;100562.97;4975555;28;46096;-57
2022/09/03 05:26:24;;;;;;;;;15.25;14.50;;;;;20.14;70.04;100558.59;4975452;28;45505;-54
2022/09/03 05:28:59;;;;;;;;;15.25;12.25;;;;;20.15;70.11;100562.13;4975706;28;45424;-53
2022/09/03 05:31:27;;;;;;;;;14.75;12.50;;;;;20.11;70.37;100559.03;4975767;28;45387;-52
2022/09/03 05:33:57;;;;;;;;;15.00;13.50;;;;;20.10;69.94;100553.81;4975333;28;47028;-52
2022/09/03 05:36:24;;;;;;;;;13.75;12.00;;;;;20.17;70.08;100568.97;4975325;28;45448;-51
2022/09/03 05:38:52;;;;;;;;;13.50;13.50;;;;;20.17;69.85;100566.25;4975533;28;45467;-49
2022/09/03 05:41:19;;;;;;;;;15.50;13.00;;;;;20.15;69.92;100575.63;4975643;28;45345;-52
2022/09/03 05:43:57;;;;;;;;;15.00;13.00;;;;;20.09;69.68;100568.38;4974150;28;47204;-51
2022/09/03 05:46:30;;;;;;;;;10.00;10.00;;;;;20.04;70.19;100587.91;4975343;28;45253;-57
2022/09/03 05:48:57;;;;;;;;;14.00;10.50;;;;;19.98;69.86;100574.44;4975352;28;45389;-50
2022/09/03 05:51:23;;;;;;;;;14.25;13.00;;;;;19.54;70.13;100519.28;4975349;28;45416;-52
2022/09/03 05:53:48;;;;;;;;;10.25;10.25;;;;;19.82;70.56;100565.75;4975085;28;46248;-52
2022/09/03 05:56:16;;;;;;;;;14.00;14.00;;;;;19.94;70.49;100599.16;4975248;28;45445;-50
2022/09/03 05:58:44;;;;;;;;;12.50;12.25;;;;;19.96;70.84;100595.41;4975406;28;45284;-50
2022/09/03 06:01:12;;;;;;;;;17.00;13.75;;;;;19.97;70.65;100595.19;4975625;28;46061;-52
2022/09/03 06:03:37;;;;;;;;;9.75;6.25;;;;;19.99;70.48;100603.94;4975039;28;47032;-52
2022/09/03 06:06:04;;;;;;;;;12.25;11.75;;;;;19.95;70.79;100605.38;4975302;28;45417;-49
2022/09/03 06:08:29;;;;;;;;;16.75;15.00;;;;;19.82;70.38;100587.34;4976674;28;45512;-57
2022/09/03 06:10:59;;;;;;;;;16.25;15.00;;;;;19.94;69.50;100611.84;4975470;28;45602;-51
2022/09/03 06:13:25;;;;;;;;;15.25;15.25;;;;;19.94;70.40;100604.56;4974932;28;45981;-52
2022/09/03 06:15:55;;;;;;;;;14.00;12.50;;;;;19.96;70.51;100607.03;4973795;28;45422;-51
2022/09/03 06:18:21;;;;;;;;;10.50;9.00;;;;;20.04;70.23;100617.63;4975228;28;45323;-54
2022/09/03 06:20:54;;;;;;;;;13.50;11.75;;;;;20.06;68.75;100618.25;4975313;28;45241;-51
2022/09/03 06:23:19;;;;;;;;;13.75;13.50;;;;;20.11;70.22;100618.44;4974583;28;45439;-53
2022/09/03 06:25:44;;;;;;;;;14.00;11.25;;;;;20.11;69.95;100615.72;4974886;28;45409;-52
2022/09/03 06:28:10;;;;;;;;;16.00;12.25;;;;;20.16;69.58;100617.78;4974880;28;45378;-53
2022/09/03 06:30:36;;;;;;;;;13.75;11.75;;;;;20.21;69.83;100609.88;4974957;28;45412;-49
2022/09/03 06:33:01;;;;;;;;;16.75;14.50;;;;;20.22;69.56;100594.50;4974923;28;46265;-53
2022/09/03 06:35:26;;;;;;;;;14.00;13.50;;;;;20.42;69.18;100611.47;4974678;28;45169;-51
2022/09/03 06:37:52;;;;;;;;;11.75;11.00;;;;;20.53;67.93;100618.94;4974787;28;45423;-50
2022/09/03 06:40:21;;;;;;;;;14.25;10.25;;;;;20.60;68.37;100625.13;4975055;28;45280;-55
2022/09/03 06:43:00;;;;;;;;;18.00;13.50;;;;;20.63;66.81;100627.38;4974318;28;47022;-50
2022/09/03 06:45:26;;;;;;;;;15.75;15.75;;;;;20.67;67.41;100623.22;4974762;28;45413;-53
2022/09/03 06:47:52;;;;;;;;;15.00;14.25;;;;;20.82;67.38;100617.53;4974922;28;45329;-50
2022/09/03 06:50:18;;;;;;;;;15.00;13.75;;;;;21.03;67.27;100627.19;4974979;28;45377;-52
2022/09/03 06:52:43;;;;;;;;;15.00;12.50;;;;;21.11;66.27;100635.03;4974695;28;45397;-52
2022/09/03 06:55:08;;;;;;;;;12.50;11.50;;;;;21.25;66.31;100627.63;4974427;28;45243;-51
2022/09/03 06:57:34;;;;;;;;;14.00;13.25;;;;;21.35;65.73;100628.00;4973932;28;45430;-53
2022/09/03 07:00:02;;;;;;;;;17.75;14.25;;;;;21.48;65.14;100627.06;4974897;28;45411;-52
2022/09/03 07:02:27;;;;;;;;;15.75;13.50;;;;;21.55;64.90;100638.66;4973847;28;46240;-55
2022/09/03 07:04:52;;;;;;;;;17.25;14.00;;;;;21.66;64.62;100637.13;4974408;28;45419;-50
2022/09/03 07:07:17;;;;;;;;;13.25;11.50;;;;;21.78;64.15;100627.19;4974294;28;45324;-54
2022/09/03 07:09:43;;;;;;;;;14.00;13.25;;;;;21.91;63.57;100627.09;4974583;28;45240;-53
2022/09/03 07:12:10;;;;;;;;;10.75;10.75;;;;;22.00;63.57;100632.22;4974133;28;45311;-52
2022/09/03 07:14:35;;;;;;;;;16.75;15.00;;;;;21.95;63.35;100626.63;4974166;28;45411;-54
2022/09/03 07:17:01;;;;;;;;;14.00;12.50;;;;;21.81;63.49;100625.94;4974442;28;45357;-52
2022/09/03 07:19:26;;;;;;;;;12.50;10.00;;;;;21.79;63.76;100625.34;4974434;28;45370;-49
2022/09/03 07:21:51;;;;;;;;;14.50;14.25;;;;;21.70;63.91;100629.38;4974278;28;45239;-52
2022/09/03 07:24:18;;;;;;;;;12.00;11.25;;;;;21.84;63.18;100631.75;4974340;28;45369;-52
2022/09/03 07:26:45;;;;;;;;;10.80;10.00;;;;;22.38;62.19;100622.00;4974324;28;45186;-48
2022/09/03 07:29:11;;;;;;;;;12.50;12.00;;;;;23.51;59.27;100635.81;4974411;28;45541;-54
2022/09/03 07:31:39;;;;;;;;;15.00;10.50;;;;;23.54;58.55;100630.75;4973760;28;46111;-53
2022/09/03 07:34:08;;;;;;;;;15.80;11.20;;;;;23.65;58.35;100637.28;4973889;28;45291;-54
2022/09/03 07:36:39;;;;;;;;;14.60;14.60;;;;;24.82;55.69;100637.09;4974023;28;45315;-49
2022/09/03 07:39:05;;;;;;;;;13.00;11.80;;;;;25.87;52.77;100635.63;4973676;28;45314;-49
2022/09/03 07:41:34;;;;;;;;;13.50;13.50;;;;;26.03;52.14;100642.09;4973743;28;46149;-52
2022/09/03 07:44:04;;;;;;;;;13.20;11.20;;;;;26.92;51.00;100643.72;4974014;28;45390;-50
2022/09/03 07:46:32;;;;;;;;;13.20;12.60;;;;;27.46;48.37;100638.25;4973815;28;45376;-49
2022/09/03 07:49:01;;;;;;;;;11.00;9.00;;;;;28.64;46.22;100645.22;4973936;28;45371;-50
2022/09/03 07:51:29;;;;;;;;;11.60;9.60;;;;;29.53;45.03;100640.44;4973584;28;45953;-53
2022/09/03 07:53:56;;;;;;;;;9.60;9.60;;;;;30.30;42.76;100631.00;4973480;28;45414;-54
2022/09/03 07:56:22;;;;;;;;;9.00;9.00;;;;;31.13;41.23;100647.81;4972385;28;45261;-48
2022/09/03 07:58:48;;;;;;;;;9.75;9.00;;;;;31.72;39.56;100639.34;4973874;28;45249;-50
2022/09/03 08:01:15;;;;;;;;;9.50;9.50;;;;;32.25;40.47;100639.34;4974761;28;45386;-48
2022/09/03 08:03:43;;;;;;;;;14.20;13.00;;;;;32.72;38.37;100634.91;4973518;28;45714;-50
2022/09/03 08:06:10;;;;;;;;;14.20;9.00;;;;;33.28;36.60;100631.28;4975051;28;45413;-49
2022/09/03 08:08:36;;;;;;;;;8.00;7.40;;;;;33.79;35.10;100632.34;4973451;28;45429;-49
2022/09/03 08:11:12;;;;;;;;;9.75;7.00;;;;;34.29;35.02;100638.00;4975438;28;46539;-48
2022/09/03 08:13:41;;;;;;;;;7.60;7.60;;;;;34.64;33.59;100643.91;4976403;28;45684;-58
2022/09/03 08:16:08;;;;;;;;;6.20;6.20;;;;;34.75;33.81;100651.66;4976705;28;45354;-50
2022/09/03 08:18:36;;;;;;;;;5.80;4.60;;;;;35.20;32.99;100651.75;4976812;28;45509;-58
2022/09/03 08:21:06;;;;;;;;;9.40;8.00;;;;;35.53;33.83;100656.22;4974472;28;47631;-57
2022/09/03 08:23:36;;;;;;;;;9.80;7.80;;;;;35.60;32.14;100660.16;4976300;28;45384;-59
2022/09/03 08:26:02;;;;;;;;;7.00;7.00;;;;;35.20;31.90;100662.81;4976628;28;45272;-56
2022/09/03 08:28:28;;;;;;;;;10.40;9.20;;;;;34.34;33.16;100662.75;4976548;28;45151;-58
2022/09/03 08:30:54;;;;;;;;;7.00;7.00;;;;;33.90;34.22;100663.34;4977858;28;45213;-60
2022/09/03 08:33:35;;;;;;;;;6.25;6.25;;;;;33.68;35.35;100666.78;4976304;28;45454;-56
2022/09/03 08:36:03;;;;;;;;;8.60;8.60;;;;;33.62;35.21;100670.75;4976289;28;45438;-59
2022/09/03 08:38:31;;;;;;;;;8.40;6.80;;;;;33.65;35.04;100675.66;4976279;28;45444;-59
2022/09/03 08:41:10;;;;;;;;;8.60;6.40;;;;;33.82;35.71;100675.91;4976303;28;45295;-57
2022/09/03 08:43:57;;;;;;;;;7.00;7.00;;;;;33.77;34.94;100665.78;4976074;28;45406;-55
2022/09/03 08:46:31;;;;;;;;;7.40;7.40;;;;;33.86;36.25;100681.63;4976221;28;45198;-58
2022/09/03 08:48:58;;;;;;;;;7.60;6.80;;;;;33.97;33.55;100672.06;4976375;28;45419;-60
2022/09/03 08:51:26;;;;;;;;;10.40;7.60;;;;;34.53;33.40;100676.47;4976174;28;46248;-53
2022/09/03 08:53:56;;;;;;;;;5.60;5.60;;;;;35.04;34.25;100682.84;4976339;28;45441;-54
2022/09/03 08:56:27;;;;;;;;;8.00;7.20;;;;;35.73;32.13;100686.94;4977922;28;45454;-57
2022/09/03 08:58:54;;;;;;;;;6.60;6.00;;;;;35.85;30.79;100686.34;4976049;28;45390;-58
2022/09/03 09:02:13;;;;;;;;;8.60;7.40;;;;;35.65;32.73;100689.63;4976049;28;45409;-59
2022/09/03 09:05:06;;;;;;;;;4.00;4.00;;;;;35.12;32.45;100687.63;4954233;28;45364;-55
2022/09/03 09:07:43;;;;;;;;;8.60;5.00;;;;;34.69;32.85;100696.31;4954353;28;45423;-54
2022/09/03 09:10:18;;;;;;;;;6.00;6.00;;;;;35.78;32.64;100708.13;4954166;28;45600;-57
2022/09/03 09:13:26;;;;;;;;;3.80;3.80;;;;;36.95;29.58;100696.50;4954122;28;46127;-56
2022/09/03 09:16:17;;;;;;;;;5.60;4.40;;;;;38.95;29.81;100690.34;4915350;28;45588;-57
2022/09/03 09:18:54;;;;;;;;;3.80;3.80;;;;;39.94;26.36;100711.00;4915511;28;45325;-56
2022/09/03 09:21:26;;;;;;;;;5.80;5.80;;;;;39.17;26.80;100703.06;4915303;28;45656;-55
2022/09/03 09:23:53;;;;;;;;;5.80;5.00;;;;;37.50;28.88;100702.53;4915679;28;46176;-56
2022/09/03 09:26:22;;;;;;;;;4.60;4.20;;;;;36.41;29.75;100703.38;4915406;28;45221;-57
2022/09/03 09:29:05;;;;;;;;;4.20;4.20;;;;;36.87;29.48;100694.53;4915645;28;45422;-58
2022/09/03 09:31:32;;;;;;;;;4.40;4.40;;;;;37.15;28.46;100697.00;4915877;28;45364;-55
2022/09/03 09:34:08;;;;;;;;;6.60;5.80;;;;;37.57;27.75;100698.13;4915457;28;45997;-57
2022/09/03 09:36:47;;;;;;;;;5.20;3.60;;;;;36.89;30.13;100695.00;4915454;28;45388;-55
2022/09/03 09:39:14;;;;;;;;;7.40;7.40;;;;;36.03;30.04;100700.28;4931532;28;45433;-56
2022/09/03 09:41:41;;;;;;;;;6.00;6.00;;;;;35.32;31.53;100703.72;4934837;28;45571;-55
2022/09/03 09:44:07;;;;;;;;;5.40;4.00;;;;;34.85;32.56;100694.84;4934458;28;47194;-56
2022/09/03 09:46:40;;;;;;;;;5.75;5.75;;;;;34.09;32.47;100708.28;4934311;28;45508;-54
2022/09/03 09:49:31;;;;;;;;;3.40;3.40;;;;;34.85;31.65;100700.38;4935950;28;45329;-55
2022/09/03 09:52:02;;;;;;;;;6.20;6.00;;;;;34.17;33.41;100704.78;4945023;28;45361;-59
2022/09/03 09:54:27;;;;;;;;;6.40;3.80;;;;;37.75;28.90;100701.66;4975268;28;45722;-52
2022/09/03 09:57:05;;;;;;;;;5.75;5.25;;;;;39.11;26.76;100693.31;4975386;28;45280;-54
2022/09/03 09:59:36;;;;;;;;;8.00;6.00;;;;;40.36;25.22;100689.34;4975623;28;45376;-57
2022/09/03 10:02:14;;;;;;;;;3.00;3.00;;;;;40.76;25.10;100711.75;4975877;28;45360;-49
2022/09/03 10:04:42;;;;;;;;;5.60;4.00;;;;;41.72;24.20;100704.50;4975499;28;46170;-51
2022/09/03 10:07:30;;;;;;;;;3.80;3.80;;;;;42.92;23.32;100691.06;4976952;28;45421;-53
2022/09/03 10:10:02;;;;;;;;;6.20;4.00;;;;;43.91;20.79;100697.03;4976106;28;45339;-51
2022/09/03 10:12:34;;;;;;;;;6.20;4.00;;;;;43.87;21.21;100707.38;4976984;28;45264;-52
2022/09/03 10:15:13;;;;;;;;;3.60;3.60;;;;;45.18;22.14;100716.19;4975525;28;45488;-55
2022/09/03 10:17:52;;;;;;;;;3.20;3.20;;;;;45.87;20.35;100715.72;4975869;28;45473;-56
2022/09/03 10:20:32;;;;;;;;;4.60;4.60;;;;;43.72;21.86;100697.88;4975836;28;45334;-48
2022/09/03 10:23:03;;;;;;;;;5.60;4.20;;;;;40.11;24.19;100716.38;4976798;28;45488;-51
2022/09/03 10:26:01;;;;;;;;;5.60;5.00;;;;;37.53;26.48;100718.53;4976864;28;45446;-55
2022/09/03 10:28:28;;;;;;;;;3.00;3.00;;;;;35.86;28.77;100729.50;4975111;28;45297;-56
2022/09/03 10:31:14;;;;;;;;;5.00;5.00;;;;;34.55;31.06;100729.47;4975300;28;45239;-59
2022/09/03 10:33:51;;;;;;;;;8.20;7.00;;;;;32.84;32.44;100700.59;4974230;28;45202;-53
2022/09/03 10:36:24;;;;;;;;;5.00;5.00;;;;;32.15;34.31;100734.97;4974670;28;45480;-55
2022/09/03 10:39:00;;;;;;;;;5.80;4.40;;;;;31.25;35.70;100750.78;4974713;28;45378;-55
2022/09/03 10:41:52;;;;;;;;;5.40;5.40;;;;;30.93;36.12;100739.44;4974901;28;45406;-58
2022/09/03 10:44:34;;;;;;;;;5.80;4.40;;;;;31.12;36.58;100740.44;4975185;28;45426;-55
2022/09/03 10:47:08;;;;;;;;;8.20;8.00;;;;;30.82;37.39;100746.91;4974638;28;46354;-57
2022/09/03 10:49:54;;;;;;;;;8.60;6.00;;;;;30.52;37.51;100743.16;4974479;28;45443;-59
2022/09/03 10:52:30;;;;;;;;;10.00;8.40;;;;;29.83;38.35;100733.66;4974649;28;45314;-58
2022/09/03 10:55:05;;;;;;;;;5.80;5.80;;;;;29.99;37.92;100739.94;4974725;28;45417;-58
2022/09/03 10:57:57;;;;;;;;;5.00;3.60;;;;;31.61;36.08;100747.00;4975665;28;45511;-53
2022/09/03 11:00:24;;;;;;;;;4.80;4.80;;;;;33.53;33.20;100734.88;4974564;28;45472;-58
2022/09/03 11:03:25;;;;;;;;;4.40;4.40;;;;;34.38;32.18;100738.34;4974771;28;45358;-54
2022/09/03 11:05:58;;;;;;;;;3.00;3.00;;;;;34.97;31.27;100731.06;4974564;28;45184;-56
2022/09/03 11:08:29;;;;;;;;;4.40;4.00;;;;;34.29;31.34;100723.59;4974366;27;46065;-50
2022/09/03 11:11:06;;;;;;;;;4.80;3.00;;;;;36.95;28.36;100718.69;4974126;28;45470;-51
2022/09/03 11:13:38;;;;;;;;;4.40;2.80;;;;;39.11;25.65;100710.81;4975672;28;45513;-51
2022/09/03 11:16:14;;;;;;;;;2.60;2.60;;;;;39.61;25.58;100714.59;4974513;28;45520;-58
2022/09/03 11:18:48;;;;;;;;;4.00;4.00;;;;;41.74;22.94;100705.00;4974307;28;46958;-57
2022/09/03 11:21:17;;;;;;;;;3.00;3.00;;;;;41.42;23.17;100715.28;4974314;28;45279;-57
2022/09/03 11:23:46;;;;;;;;;3.00;3.00;;;;;42.27;22.77;100717.56;4974166;28;45388;-55
2022/09/03 11:26:15;;;;;;;;;0.20;0.20;;;;;43.25;21.00;100726.97;4974262;28;45430;-53
2022/09/03 11:28:59;;;;;;;;;4.60;3.00;;;;;43.54;20.04;100717.97;4974017;28;45427;-56
2022/09/03 11:31:31;;;;;;;;;3.00;2.80;;;;;44.01;20.60;100714.03;4973942;28;45396;-56
2022/09/03 11:34:06;;;;;;;;;3.40;3.40;;;;;44.11;20.06;100715.38;4974157;28;45434;-53
2022/09/03 11:36:37;;;;;;;;;3.00;3.00;;;;;42.70;20.19;100706.59;4974248;28;45350;-55
2022/09/03 11:39:17;;;;;;;;;2.00;2.00;;;;;40.39;23.06;100722.91;4973818;28;45277;-55
2022/09/03 11:41:56;;;;;;;;;4.00;1.40;;;;;38.28;25.24;100721.78;4973762;28;45412;-56